Time;durP1;ratioP1;P1;durP2;ratioP2;P2;SDS_P1;SDS_P2;PMS_P1;PMS_P2;Temp;Humidity;BMP_temperature;BMP_pressure;BME280_temperature;BME280_humidity;BME280_pressure;Samples;Min_cycle;Max_cycle;Signal;HPM_P1;HPM_P2
2022/07/31 00:00:56;;;;;;;1.80;1.70;;;;;25.40;100701.00;;;;2079378;28;20213;-53
2022/07/31 00:01:57;;;;;;;1.93;1.73;;;;;25.40;100701.00;;;;2079223;28;20259;-53
2022/07/31 00:02:57;;;;;;;1.97;1.87;;;;;25.40;100706.00;;;;2079225;28;20256;-53
2022/07/31 00:03:57;;;;;;;2.00;1.90;;;;;25.40;100703.00;;;;2079149;28;20209;-52
2022/07/31 00:04:57;;;;;;;2.17;1.97;;;;;25.40;100703.00;;;;2078940;28;20648;-52
2022/07/31 00:05:58;;;;;;;1.80;1.70;;;;;25.40;100698.00;;;;2085816;28;20582;-52
2022/07/31 00:06:58;;;;;;;2.13;1.93;;;;;25.40;100701.00;;;;2087429;28;20728;-52
2022/07/31 00:07:58;;;;;;;1.60;1.50;;;;;25.40;100705.00;;;;2086250;28;20701;-52
2022/07/31 00:08:59;;;;;;;2.20;2.00;;;;;25.40;100704.00;;;;2087357;28;20672;-53
2022/07/31 00:09:59;;;;;;;2.20;2.00;;;;;25.40;100684.00;;;;2087140;28;20208;-53
2022/07/31 00:10:59;;;;;;;2.37;1.90;;;;;25.40;100702.00;;;;2083948;28;20213;-52
2022/07/31 00:12:00;;;;;;;2.03;1.93;;;;;25.40;100703.00;;;;2079048;28;20220;-53
2022/07/31 00:13:00;;;;;;;1.97;1.87;;;;;25.40;100681.00;;;;2079056;28;20206;-53
2022/07/31 00:14:00;;;;;;;2.53;2.30;;;;;25.40;100705.00;;;;2079187;28;20206;-52
2022/07/31 00:15:02;;;;;;;1.90;1.80;;;;;25.40;100709.00;;;;2078858;28;20206;-52
2022/07/31 00:16:03;;;;;;;2.10;1.63;;;;;25.40;100696.00;;;;2078902;28;20225;-53
2022/07/31 00:17:03;;;;;;;2.20;2.10;;;;;25.40;100704.00;;;;2078732;28;20989;-53
2022/07/31 00:18:04;;;;;;;2.00;1.77;;;;;25.30;100702.00;;;;2078139;28;20224;-53
2022/07/31 00:19:04;;;;;;;2.27;2.07;;;;;25.40;100698.00;;;;2079129;28;20221;-53
2022/07/31 00:20:05;;;;;;;2.37;2.00;;;;;25.40;100688.00;;;;2078090;28;20209;-52
2022/07/31 00:21:06;;;;;;;1.90;1.80;;;;;25.40;100702.00;;;;2078347;28;20217;-53
2022/07/31 00:22:06;;;;;;;2.13;1.90;;;;;25.40;100699.00;;;;2078952;28;20217;-54
2022/07/31 00:23:06;;;;;;;1.90;1.80;;;;;25.40;100696.00;;;;2078326;28;20205;-54
2022/07/31 00:24:07;;;;;;;2.30;2.10;;;;;25.40;100684.00;;;;2078241;28;20218;-53
2022/07/31 00:25:08;;;;;;;2.00;1.90;;;;;25.40;100691.00;;;;2078777;28;20296;-53
2022/07/31 00:26:09;;;;;;;1.88;1.77;;;;;25.40;100687.00;;;;2079111;28;20225;-53
2022/07/31 00:27:09;;;;;;;2.77;1.73;;;;;25.40;100697.00;;;;2078976;28;20304;-53
2022/07/31 00:28:09;;;;;;;1.93;1.80;;;;;25.40;100686.00;;;;2077726;28;20214;-53
2022/07/31 00:29:10;;;;;;;2.20;2.07;;;;;25.40;100673.00;;;;2082983;28;20224;-53
2022/07/31 00:30:13;;;;;;;2.10;2.00;;;;;25.40;100683.00;;;;2086478;28;20217;-54
2022/07/31 00:31:13;;;;;;;1.75;1.65;;;;;25.40;100691.00;;;;2086566;28;20208;-52
2022/07/31 00:32:14;;;;;;;1.80;1.70;;;;;25.40;100689.00;;;;2087161;28;20251;-53
2022/07/31 00:33:14;;;;;;;1.70;1.60;;;;;25.40;100687.00;;;;2087236;28;20229;-53
2022/07/31 00:34:14;;;;;;;1.90;1.80;;;;;25.40;100687.00;;;;2087060;28;20243;-53
2022/07/31 00:35:15;;;;;;;1.73;1.63;;;;;25.40;100687.00;;;;2087065;28;20692;-54
2022/07/31 00:36:15;;;;;;;1.80;1.70;;;;;25.40;100687.00;;;;2087047;28;20636;-53
2022/07/31 00:37:15;;;;;;;1.87;1.77;;;;;25.40;100687.00;;;;2086738;28;20356;-53
2022/07/31 00:38:16;;;;;;;1.90;1.80;;;;;25.40;100684.00;;;;2086717;28;20239;-53
2022/07/31 00:39:16;;;;;;;2.13;2.00;;;;;25.40;100675.00;;;;2086884;28;20290;-53
2022/07/31 00:40:17;;;;;;;2.57;2.37;;;;;25.40;100686.00;;;;2086880;28;20209;-52
2022/07/31 00:41:17;;;;;;;2.20;1.90;;;;;25.40;100689.00;;;;2087131;28;20228;-52
2022/07/31 00:42:22;;;;;;;1.80;1.70;;;;;25.40;100686.00;;;;2087152;28;20212;-52
2022/07/31 00:43:23;;;;;;;1.80;1.70;;;;;25.40;100682.00;;;;2083619;28;20634;-53
2022/07/31 00:44:23;;;;;;;1.87;1.73;;;;;25.40;100676.00;;;;2078846;28;20214;-53
2022/07/31 00:45:23;;;;;;;1.93;1.80;;;;;25.40;100681.00;;;;2078753;28;20220;-52
2022/07/31 00:46:24;;;;;;;2.33;1.90;;;;;25.40;100681.00;;;;2078817;28;20292;-54
2022/07/31 00:47:24;;;;;;;1.80;1.70;;;;;25.40;100679.00;;;;2084907;28;20697;-54
2022/07/31 00:48:25;;;;;;;2.17;1.97;;;;;25.40;100675.00;;;;2086801;28;20716;-54
2022/07/31 00:49:25;;;;;;;2.60;2.10;;;;;25.40;100678.00;;;;2087058;28;20697;-54
2022/07/31 00:50:25;;;;;;;1.90;1.70;;;;;25.40;100675.00;;;;2086754;28;20213;-52
2022/07/31 00:51:26;;;;;;;2.40;2.20;;;;;25.40;100678.00;;;;2087145;28;20231;-53
2022/07/31 00:52:26;;;;;;;2.13;2.00;;;;;25.40;100656.00;;;;2087164;28;20204;-52
2022/07/31 00:53:26;;;;;;;2.40;2.20;;;;;25.40;100666.00;;;;2086852;28;20266;-53
2022/07/31 00:54:27;;;;;;;2.20;1.90;;;;;25.40;100669.00;;;;2086927;28;20217;-53
2022/07/31 00:55:27;;;;;;;2.30;2.10;;;;;25.40;100664.00;;;;2087016;28;20780;-53
2022/07/31 00:56:27;;;;;;;2.13;1.93;;;;;25.40;100670.00;;;;2086721;28;20637;-54
2022/07/31 00:57:28;;;;;;;1.90;1.80;;;;;25.40;100670.00;;;;2085853;28;20213;-54
2022/07/31 00:58:28;;;;;;;2.00;1.80;;;;;25.40;100661.00;;;;2086854;28;20597;-54
2022/07/31 00:59:29;;;;;;;1.80;1.70;;;;;25.40;100659.00;;;;2086991;28;20255;-53
2022/07/31 01:00:29;;;;;;;1.87;1.77;;;;;25.40;100659.00;;;;2087029;28;20244;-53
2022/07/31 01:01:29;;;;;;;1.80;1.70;;;;;25.40;100663.00;;;;2086907;28;20215;-54
2022/07/31 01:02:30;;;;;;;2.00;1.83;;;;;25.40;100660.00;;;;2086796;28;20248;-54
2022/07/31 01:03:30;;;;;;;2.70;2.20;;;;;25.40;100656.00;;;;2086982;28;21058;-54
2022/07/31 01:04:30;;;;;;;2.00;1.90;;;;;25.40;100660.00;;;;2086518;28;20217;-54
2022/07/31 01:05:31;;;;;;;2.10;2.00;;;;;25.40;100659.00;;;;2086723;28;20262;-52
2022/07/31 01:06:31;;;;;;;2.27;2.07;;;;;25.40;100654.00;;;;2086843;28;20258;-53
2022/07/31 01:07:31;;;;;;;2.20;2.00;;;;;25.40;100663.00;;;;2085734;28;20217;-52
2022/07/31 01:08:32;;;;;;;2.10;2.00;;;;;25.40;100655.00;;;;2086986;28;20209;-53
2022/07/31 01:09:32;;;;;;;2.20;2.10;;;;;25.40;100655.00;;;;2086897;28;20209;-54
2022/07/31 01:11:23;;;;;;;1.97;1.80;;;;;25.40;100655.00;;;;2086760;28;20331;-54
2022/07/31 01:12:30;;;;;;;1.90;1.80;;;;;25.40;100666.00;;;;2081364;28;20297;-53
2022/07/31 01:13:58;;;;;;;2.53;1.98;;;;;24.90;100655.00;;;;2069393;28;20640;-53
2022/07/31 01:15:01;;;;;;;1.98;1.88;;;;;25.40;100657.00;;;;2062615;28;20217;-54
2022/07/31 01:16:02;;;;;;;1.70;1.60;;;;;25.40;100656.00;;;;2065129;28;20222;-53
2022/07/31 01:17:03;;;;;;;1.70;1.60;;;;;25.40;100657.00;;;;2059196;28;20237;-53
2022/07/31 01:18:03;;;;;;;1.80;1.70;;;;;25.40;100656.00;;;;2065025;28;20230;-54
2022/07/31 01:19:11;;;;;;;2.00;1.90;;;;;25.40;100632.00;;;;2069024;28;21162;-53
2022/07/31 01:20:12;;;;;;;2.00;1.80;;;;;25.40;100655.00;;;;2077516;28;20221;-54
2022/07/31 01:21:16;;;;;;;1.77;1.67;;;;;25.40;100647.00;;;;2077293;28;20461;-53
2022/07/31 01:22:44;;;;;;;1.90;1.80;;;;;25.40;100657.00;;;;2081813;28;20281;-53
2022/07/31 01:24:07;;;;;;;2.10;1.90;;;;;25.40;100654.00;;;;2085040;28;20213;-53
2022/07/31 01:25:07;;;;;;;2.05;1.85;;;;;25.40;100658.00;;;;2076723;28;20225;-53
2022/07/31 01:26:17;;;;;;;2.03;1.90;;;;;25.40;100661.00;;;;2076321;28;20678;-53
2022/07/31 01:27:36;;;;;;;2.00;1.90;;;;;25.40;100657.00;;;;2082378;28;20342;-53
2022/07/31 01:28:57;;;;;;;2.00;1.80;;;;;25.40;100655.00;;;;2086635;28;20214;-54
2022/07/31 01:29:59;;;;;;;1.73;1.63;;;;;25.40;100658.00;;;;2085583;28;20216;-54
2022/07/31 01:31:20;;;;;;;2.65;2.15;;;;;25.40;100658.00;;;;2083592;28;20232;-54
2022/07/31 01:32:42;;;;;;;2.08;1.98;;;;;25.40;100659.00;;;;2078022;28;20729;-53
2022/07/31 01:33:47;;;;;;;1.60;1.50;;;;;25.40;100663.00;;;;2077272;28;20233;-53
2022/07/31 01:34:48;;;;;;;2.40;2.20;;;;;25.40;100656.00;;;;2078320;28;20793;-53
2022/07/31 01:35:53;;;;;;;2.13;1.90;;;;;25.40;100657.00;;;;2081064;28;20218;-53
2022/07/31 01:37:00;;;;;;;2.25;2.05;;;;;25.40;100651.00;;;;2061393;28;20219;-53
2022/07/31 01:38:14;;;;;;;2.50;1.98;;;;;25.30;100657.00;;;;2057124;28;20222;-54
2022/07/31 01:39:14;;;;;;;2.15;1.95;;;;;25.30;100646.00;;;;2065318;28;20781;-53
2022/07/31 01:40:37;;;;;;;1.87;1.77;;;;;25.30;100656.00;;;;2077259;28;20210;-53
2022/07/31 01:41:39;;;;;;;1.85;1.75;;;;;25.30;100655.00;;;;2080234;28;20213;-53
2022/07/31 01:42:41;;;;;;;2.08;1.70;;;;;25.30;100647.00;;;;2086177;28;20212;-53
2022/07/31 01:43:43;;;;;;;2.00;1.80;;;;;25.30;100649.00;;;;2086172;28;20209;-53
2022/07/31 01:44:44;;;;;;;2.28;1.90;;;;;25.30;100621.00;;;;2085545;28;20584;-52
2022/07/31 01:45:46;;;;;;;2.30;2.10;;;;;25.30;100657.00;;;;2069841;28;20209;-53
2022/07/31 01:46:46;;;;;;;1.90;1.80;;;;;25.30;100610.00;;;;2075435;28;20612;-53
2022/07/31 01:47:46;;;;;;;1.90;1.80;;;;;25.30;100621.00;;;;2075786;28;20247;-53
2022/07/31 01:48:47;;;;;;;2.10;1.90;;;;;25.40;100651.00;;;;2069537;28;20230;-54
2022/07/31 01:49:48;;;;;;;2.27;2.07;;;;;25.40;100653.00;;;;2077923;28;20656;-53
2022/07/31 01:50:49;;;;;;;1.90;1.80;;;;;25.40;100650.00;;;;2078005;28;20217;-53
2022/07/31 01:51:49;;;;;;;2.00;1.88;;;;;25.30;100642.00;;;;2079090;28;20483;-53
2022/07/31 01:52:50;;;;;;;2.30;2.10;;;;;25.40;100647.00;;;;2061736;28;20223;-53
2022/07/31 01:53:50;;;;;;;1.60;1.50;;;;;25.40;100616.00;;;;2061862;28;20227;-52
2022/07/31 01:54:51;;;;;;;1.97;1.87;;;;;25.30;100644.00;;;;2061660;28;20273;-52
2022/07/31 01:55:53;;;;;;;2.28;1.88;;;;;25.30;100647.00;;;;2067776;28;20316;-53
2022/07/31 01:56:53;;;;;;;1.80;1.70;;;;;25.30;100640.00;;;;2077599;28;20268;-52
2022/07/31 01:57:54;;;;;;;1.70;1.60;;;;;25.30;100642.00;;;;2077030;28;20304;-52
2022/07/31 01:58:54;;;;;;;2.03;1.93;;;;;25.30;100701.00;;;;2077788;28;20570;-53
2022/07/31 01:59:57;;;;;;;2.27;2.07;;;;;25.30;100638.00;;;;2077045;28;20718;-52
2022/07/31 02:00:57;;;;;;;2.30;2.10;;;;;25.30;100643.00;;;;2076803;28;20233;-53
2022/07/31 02:01:58;;;;;;;1.83;1.73;;;;;25.30;100646.00;;;;2076863;28;20698;-52
2022/07/31 02:02:58;;;;;;;2.30;2.20;;;;;25.30;100617.00;;;;2077302;28;20698;-52
2022/07/31 02:03:59;;;;;;;2.53;1.90;;;;;25.30;100645.00;;;;2076990;28;20778;-52
2022/07/31 02:05:01;;;;;;;1.98;1.88;;;;;25.30;100646.00;;;;2076829;28;20217;-52
2022/07/31 02:06:02;;;;;;;1.98;1.88;;;;;25.30;100648.00;;;;2076738;28;20217;-52
2022/07/31 02:07:03;;;;;;;1.90;1.80;;;;;25.30;100641.00;;;;2073156;28;20954;-54
2022/07/31 02:08:03;;;;;;;2.17;2.07;;;;;25.30;100645.00;;;;2077132;28;20479;-53
2022/07/31 02:09:03;;;;;;;2.00;1.87;;;;;25.30;100637.00;;;;2077147;28;20225;-53
2022/07/31 02:10:04;;;;;;;1.80;1.70;;;;;25.30;100645.00;;;;2060864;28;20279;-54
2022/07/31 02:11:04;;;;;;;1.73;1.63;;;;;25.40;100646.00;;;;2061466;28;20277;-53
2022/07/31 02:12:05;;;;;;;2.00;1.90;;;;;25.30;100633.00;;;;2077666;28;20210;-53
2022/07/31 02:13:05;;;;;;;2.17;1.97;;;;;25.30;100637.00;;;;2077505;28;20234;-53
2022/07/31 02:14:06;;;;;;;1.83;1.73;;;;;25.30;100598.00;;;;2062519;28;20668;-53
2022/07/31 02:15:10;;;;;;;2.60;2.40;;;;;25.30;100641.00;;;;2068937;28;21259;-53
2022/07/31 02:16:11;;;;;;;2.38;2.17;;;;;25.30;100627.00;;;;2076183;28;20213;-52
2022/07/31 02:17:12;;;;;;;2.03;1.90;;;;;25.30;100637.00;;;;2068980;28;20226;-52
2022/07/31 02:18:12;;;;;;;1.90;1.80;;;;;25.30;100636.00;;;;2073547;28;20226;-53
2022/07/31 02:19:13;;;;;;;1.97;1.87;;;;;25.30;100637.00;;;;2074937;28;20213;-53
2022/07/31 02:20:14;;;;;;;2.17;1.88;;;;;25.30;100599.00;;;;2078693;28;20210;-53
2022/07/31 02:21:14;;;;;;;1.97;1.80;;;;;25.30;100630.00;;;;2076607;28;20210;-53
2022/07/31 02:22:14;;;;;;;1.80;1.70;;;;;25.30;100622.00;;;;2076162;28;20256;-52
2022/07/31 02:23:15;;;;;;;2.30;2.10;;;;;25.30;100628.00;;;;2078470;28;20213;-52
2022/07/31 02:24:16;;;;;;;2.30;2.10;;;;;25.30;100623.00;;;;2078610;28;20296;-52
2022/07/31 02:25:16;;;;;;;1.85;1.75;;;;;25.30;100635.00;;;;2079036;28;20207;-53
2022/07/31 02:26:17;;;;;;;2.20;2.10;;;;;25.30;100663.00;;;;2079833;28;20730;-53
2022/07/31 02:27:17;;;;;;;1.80;1.70;;;;;25.30;100580.00;;;;2079192;28;20736;-52
2022/07/31 02:28:21;;;;;;;1.90;1.80;;;;;25.30;100632.00;;;;2078908;28;20319;-54
2022/07/31 02:29:21;;;;;;;2.20;2.00;;;;;25.30;100640.00;;;;2083828;28;20205;-52
2022/07/31 02:30:22;;;;;;;1.70;1.60;;;;;25.30;100624.00;;;;2087506;28;20694;-52
2022/07/31 02:31:23;;;;;;;1.70;1.60;;;;;25.30;100623.00;;;;2087593;28;20209;-52
2022/07/31 02:32:24;;;;;;;2.00;1.80;;;;;25.30;100632.00;;;;2087336;28;20205;-52
2022/07/31 02:33:24;;;;;;;1.80;1.70;;;;;25.30;100624.00;;;;2070937;28;20261;-52
2022/07/31 02:34:24;;;;;;;1.93;1.83;;;;;25.30;100617.00;;;;2087189;28;20771;-52
2022/07/31 02:35:25;;;;;;;1.83;1.73;;;;;25.30;100619.00;;;;2087922;28;20624;-53
2022/07/31 02:36:26;;;;;;;2.03;1.83;;;;;25.30;100631.00;;;;2079184;28;20206;-52
2022/07/31 02:37:26;;;;;;;2.20;2.00;;;;;25.30;100625.00;;;;2069636;28;20241;-52
2022/07/31 02:38:27;;;;;;;2.10;1.90;;;;;25.30;100592.00;;;;2077565;28;20276;-52
2022/07/31 02:39:27;;;;;;;2.17;1.83;;;;;25.30;100627.00;;;;2071003;28;20237;-52
2022/07/31 02:40:27;;;;;;;2.10;2.00;;;;;25.30;100622.00;;;;2070971;28;20217;-52
2022/07/31 02:41:28;;;;;;;2.10;1.90;;;;;25.30;100604.00;;;;2078736;28;20277;-52
2022/07/31 02:42:28;;;;;;;2.27;2.00;;;;;25.30;100604.00;;;;2062688;28;20309;-53
2022/07/31 02:43:30;;;;;;;2.13;1.97;;;;;25.30;100620.00;;;;2070655;28;20271;-52
2022/07/31 02:44:30;;;;;;;2.10;1.90;;;;;25.30;100611.00;;;;2079153;28;20221;-52
2022/07/31 02:45:31;;;;;;;2.37;2.17;;;;;25.30;100615.00;;;;2083158;28;20310;-52
2022/07/31 02:46:31;;;;;;;2.73;1.90;;;;;25.30;100650.00;;;;2079118;28;20617;-52
2022/07/31 02:47:32;;;;;;;1.83;1.73;;;;;25.30;100644.00;;;;2080196;28;20604;-52
2022/07/31 02:48:32;;;;;;;1.87;1.77;;;;;25.30;100595.00;;;;2087071;28;20625;-52
2022/07/31 02:49:32;;;;;;;2.00;1.80;;;;;25.30;100611.00;;;;2079049;28;20217;-53
2022/07/31 02:50:33;;;;;;;1.80;1.70;;;;;25.30;100612.00;;;;2070888;28;20218;-53
2022/07/31 02:51:33;;;;;;;1.97;1.87;;;;;25.30;100606.00;;;;2079051;28;20217;-52
2022/07/31 02:52:33;;;;;;;1.80;1.70;;;;;25.30;100607.00;;;;2087082;28;20213;-52
2022/07/31 02:53:36;;;;;;;2.00;1.80;;;;;25.30;100606.00;;;;2078865;28;20617;-52
2022/07/31 02:54:38;;;;;;;1.70;1.60;;;;;25.30;100607.00;;;;2087268;28;20266;-53
2022/07/31 02:55:38;;;;;;;2.17;2.03;;;;;25.30;100600.00;;;;2078544;28;20272;-53
2022/07/31 02:56:38;;;;;;;2.67;2.10;;;;;25.30;100598.00;;;;2078809;28;20275;-52
2022/07/31 02:57:39;;;;;;;2.30;2.10;;;;;25.30;100609.00;;;;2061519;28;20223;-52
2022/07/31 02:58:42;;;;;;;2.10;1.80;;;;;25.30;100608.00;;;;2078979;28;20217;-52
2022/07/31 02:59:45;;;;;;;1.77;1.67;;;;;25.30;100606.00;;;;2086938;28;20852;-53
2022/07/31 03:00:45;;;;;;;1.85;1.75;;;;;25.30;100603.00;;;;2086992;28;20205;-53
2022/07/31 03:01:46;;;;;;;1.67;1.57;;;;;25.30;100606.00;;;;2087283;28;20205;-53
2022/07/31 03:02:46;;;;;;;1.70;1.60;;;;;25.30;100626.00;;;;2087854;28;20248;-54
2022/07/31 03:03:46;;;;;;;2.20;2.00;;;;;25.30;100602.00;;;;2087660;28;20266;-54
2022/07/31 03:04:47;;;;;;;2.00;1.80;;;;;25.30;100603.00;;;;2087664;28;20216;-53
2022/07/31 03:05:47;;;;;;;1.80;1.70;;;;;25.30;100604.00;;;;2087054;28;20296;-52
2022/07/31 03:06:47;;;;;;;1.77;1.67;;;;;25.30;100596.00;;;;2087209;28;20213;-52
2022/07/31 03:07:48;;;;;;;2.40;2.20;;;;;25.30;100600.00;;;;2086239;28;20213;-52
2022/07/31 03:08:48;;;;;;;2.33;2.20;;;;;25.30;100572.00;;;;2087694;28;20296;-53
2022/07/31 03:09:48;;;;;;;1.63;1.53;;;;;25.30;100587.00;;;;2087879;28;20209;-53
2022/07/31 03:10:49;;;;;;;1.80;1.70;;;;;25.30;100603.00;;;;2087183;28;20266;-53
2022/07/31 03:11:49;;;;;;;2.37;2.17;;;;;25.30;100603.00;;;;2087993;28;20255;-53
2022/07/31 03:12:51;;;;;;;1.90;1.80;;;;;25.30;100600.00;;;;2087002;28;20219;-53
2022/07/31 03:13:52;;;;;;;1.90;1.80;;;;;25.30;100599.00;;;;2087119;28;20217;-53
2022/07/31 03:14:53;;;;;;;1.98;1.88;;;;;25.30;100604.00;;;;2087049;28;20209;-53
2022/07/31 03:15:53;;;;;;;2.13;2.00;;;;;25.30;100582.00;;;;2086950;28;20209;-53
2022/07/31 03:16:54;;;;;;;2.17;2.00;;;;;25.30;100601.00;;;;2078712;28;20271;-52
2022/07/31 03:17:54;;;;;;;2.50;2.27;;;;;25.30;100600.00;;;;2085883;28;20444;-53
2022/07/31 03:18:55;;;;;;;1.93;1.83;;;;;25.30;100596.00;;;;2087763;28;20584;-52
2022/07/31 03:19:56;;;;;;;1.90;1.80;;;;;25.30;100602.00;;;;2084968;28;20323;-53
2022/07/31 03:20:56;;;;;;;1.80;1.70;;;;;25.30;100595.00;;;;2086913;28;20731;-52
2022/07/31 03:21:56;;;;;;;1.80;1.70;;;;;25.30;100590.00;;;;2086880;28;20479;-53
2022/07/31 03:22:57;;;;;;;2.03;1.80;;;;;25.30;100601.00;;;;2086734;28;20216;-53
2022/07/31 03:23:58;;;;;;;1.57;1.47;;;;;25.30;100600.00;;;;2081315;28;20662;-52
2022/07/31 03:24:59;;;;;;;2.20;2.10;;;;;25.30;100603.00;;;;2062314;28;20706;-54
2022/07/31 03:25:59;;;;;;;2.47;2.28;;;;;25.30;100608.00;;;;2069811;28;20214;-53
2022/07/31 03:26:59;;;;;;;1.90;1.80;;;;;25.30;100606.00;;;;2082056;28;20753;-52
2022/07/31 03:28:00;;;;;;;2.07;1.87;;;;;25.30;100605.00;;;;2078456;28;20705;-52
2022/07/31 03:29:00;;;;;;;1.90;1.80;;;;;25.30;100603.00;;;;2078020;28;20736;-52
2022/07/31 03:30:00;;;;;;;2.07;1.83;;;;;25.30;100600.00;;;;2079597;28;20222;-53
2022/07/31 03:31:01;;;;;;;1.70;1.60;;;;;25.30;100600.00;;;;2079308;28;20209;-53
2022/07/31 03:32:01;;;;;;;1.93;1.83;;;;;25.30;100590.00;;;;2078474;28;20212;-53
2022/07/31 03:33:02;;;;;;;1.70;1.60;;;;;25.30;100662.00;;;;2078779;28;20582;-52
2022/07/31 03:34:02;;;;;;;1.90;1.77;;;;;25.30;100596.00;;;;2078079;28;20640;-53
2022/07/31 03:35:03;;;;;;;1.73;1.63;;;;;25.30;100597.00;;;;2078536;28;20239;-53
2022/07/31 03:36:03;;;;;;;1.90;1.80;;;;;25.20;100596.00;;;;2079337;28;20217;-53
2022/07/31 03:37:04;;;;;;;1.80;1.70;;;;;25.30;100603.00;;;;2079104;28;20334;-53
2022/07/31 03:38:04;;;;;;;1.97;1.87;;;;;25.30;100589.00;;;;2078328;28;20221;-52
2022/07/31 03:39:05;;;;;;;1.80;1.70;;;;;25.30;100603.00;;;;2079317;28;20209;-53
2022/07/31 03:40:06;;;;;;;2.20;2.00;;;;;25.30;100604.00;;;;2079331;28;20224;-53
2022/07/31 03:41:06;;;;;;;1.97;1.87;;;;;25.30;100608.00;;;;2079204;28;20224;-53
2022/07/31 03:42:09;;;;;;;2.07;1.90;;;;;25.30;100608.00;;;;2079245;28;20209;-53
2022/07/31 03:43:10;;;;;;;2.00;1.90;;;;;25.30;100598.00;;;;2082917;28;20283;-53
2022/07/31 03:44:10;;;;;;;2.07;1.97;;;;;25.30;100602.00;;;;2086983;28;20444;-53
2022/07/31 03:45:10;;;;;;;1.80;1.70;;;;;25.30;100609.00;;;;2087669;28;20271;-53
2022/07/31 03:46:11;;;;;;;1.90;1.80;;;;;25.30;100597.00;;;;2087013;28;20296;-53
2022/07/31 03:47:11;;;;;;;2.00;1.90;;;;;25.20;100590.00;;;;2082572;28;20796;-52
2022/07/31 03:48:11;;;;;;;2.10;1.90;;;;;25.30;100592.00;;;;2077603;28;20706;-53
2022/07/31 03:49:12;;;;;;;1.80;1.70;;;;;25.30;100590.00;;;;2070354;28;20857;-53
2022/07/31 03:50:12;;;;;;;1.90;1.80;;;;;25.30;100554.00;;;;2078894;28;20651;-52
2022/07/31 03:51:12;;;;;;;2.13;1.93;;;;;25.30;100590.00;;;;2078414;28;20221;-52
2022/07/31 03:52:13;;;;;;;1.80;1.70;;;;;25.30;100565.00;;;;2070513;28;20257;-53
2022/07/31 03:53:13;;;;;;;2.40;2.20;;;;;25.30;100588.00;;;;2078481;28;20209;-52
2022/07/31 03:54:13;;;;;;;2.00;1.80;;;;;25.30;100595.00;;;;2078610;28;20209;-53
2022/07/31 03:55:14;;;;;;;2.00;1.90;;;;;25.30;100591.00;;;;2078437;28;20713;-52
2022/07/31 03:56:14;;;;;;;1.93;1.83;;;;;25.30;100596.00;;;;2079340;28;20738;-53
2022/07/31 03:57:15;;;;;;;1.80;1.70;;;;;25.30;100586.00;;;;2083458;28;20228;-52
2022/07/31 03:58:16;;;;;;;2.57;2.37;;;;;25.30;100591.00;;;;2086152;28;20217;-52
2022/07/31 03:59:17;;;;;;;1.83;1.73;;;;;25.30;100580.00;;;;2086716;28;20216;-52
2022/07/31 04:00:19;;;;;;;1.73;1.50;;;;;25.30;100628.00;;;;2085656;28;20677;-52
2022/07/31 04:01:19;;;;;;;2.00;1.80;;;;;25.30;100603.00;;;;2086375;28;20201;-53
2022/07/31 04:02:20;;;;;;;1.90;1.80;;;;;25.30;100593.00;;;;2086833;28;20796;-54
2022/07/31 04:03:21;;;;;;;2.00;1.90;;;;;25.30;100599.00;;;;2087334;28;20213;-53
2022/07/31 04:04:21;;;;;;;1.77;1.67;;;;;25.30;100600.00;;;;2081394;28;20452;-53
2022/07/31 04:05:22;;;;;;;2.07;1.80;;;;;25.30;100600.00;;;;2079204;28;20303;-53
2022/07/31 04:06:22;;;;;;;2.00;1.80;;;;;25.30;100601.00;;;;2078486;28;20209;-52
2022/07/31 04:07:23;;;;;;;2.10;2.00;;;;;25.30;100600.00;;;;2077498;28;20283;-53
2022/07/31 04:08:23;;;;;;;1.77;1.67;;;;;25.30;100595.00;;;;2087027;28;20225;-53
2022/07/31 04:09:24;;;;;;;1.90;1.80;;;;;25.30;100599.00;;;;2087210;28;20200;-53
2022/07/31 04:10:24;;;;;;;2.17;1.97;;;;;25.30;100606.00;;;;2087341;28;20209;-53
2022/07/31 04:11:24;;;;;;;2.20;2.00;;;;;25.30;100609.00;;;;2087193;28;20217;-52
2022/07/31 04:12:25;;;;;;;1.70;1.60;;;;;25.30;100601.00;;;;2082877;28;20210;-53
2022/07/31 04:13:25;;;;;;;1.93;1.83;;;;;25.30;100603.00;;;;2079065;28;20275;-53
2022/07/31 04:14:25;;;;;;;2.20;1.73;;;;;25.30;100603.00;;;;2079181;28;20209;-53
2022/07/31 04:15:26;;;;;;;2.27;2.07;;;;;25.30;100614.00;;;;2078948;28;20209;-54
2022/07/31 04:16:26;;;;;;;2.07;1.87;;;;;25.30;100609.00;;;;2079144;28;20287;-53
2022/07/31 04:17:27;;;;;;;1.80;1.70;;;;;25.30;100593.00;;;;2078040;28;20233;-53
2022/07/31 04:18:27;;;;;;;1.77;1.67;;;;;25.30;100602.00;;;;2078964;28;20218;-53
2022/07/31 04:19:30;;;;;;;1.90;1.80;;;;;25.30;100575.00;;;;2078946;28;20213;-53
2022/07/31 04:20:30;;;;;;;1.80;1.70;;;;;25.30;100603.00;;;;2078596;28;20764;-52
2022/07/31 04:21:31;;;;;;;1.83;1.73;;;;;25.30;100605.00;;;;2079166;28;20237;-52
2022/07/31 04:22:31;;;;;;;2.20;2.00;;;;;25.30;100602.00;;;;2079021;28;20221;-52
2022/07/31 04:23:31;;;;;;;1.87;1.77;;;;;25.30;100599.00;;;;2085868;28;20231;-52
2022/07/31 04:24:32;;;;;;;1.90;1.80;;;;;25.30;100595.00;;;;2086731;28;20585;-53
2022/07/31 04:25:32;;;;;;;1.83;1.73;;;;;25.30;100592.00;;;;2078238;28;20698;-52
2022/07/31 04:26:32;;;;;;;2.00;1.80;;;;;25.30;100596.00;;;;2078400;28;20633;-53
2022/07/31 04:27:35;;;;;;;2.20;2.00;;;;;25.30;100595.00;;;;2078204;28;20637;-52
2022/07/31 04:28:36;;;;;;;2.10;1.73;;;;;25.30;100597.00;;;;2079007;28;20272;-52
2022/07/31 04:29:36;;;;;;;1.87;1.77;;;;;25.30;100601.00;;;;2079083;28;20213;-52
2022/07/31 04:30:38;;;;;;;2.20;2.00;;;;;25.30;100597.00;;;;2080971;28;20252;-52
2022/07/31 04:31:38;;;;;;;1.90;1.80;;;;;25.30;100581.00;;;;2087092;28;20213;-53
2022/07/31 04:32:39;;;;;;;2.00;1.80;;;;;25.30;100573.00;;;;2087263;28;20215;-52
2022/07/31 04:33:39;;;;;;;2.30;2.10;;;;;25.30;100586.00;;;;2079100;28;20204;-53
2022/07/31 04:34:41;;;;;;;1.67;1.57;;;;;25.30;100591.00;;;;2086804;28;20221;-52
2022/07/31 04:35:41;;;;;;;1.98;1.88;;;;;25.30;100597.00;;;;2087088;28;20240;-53
2022/07/31 04:36:41;;;;;;;1.80;1.70;;;;;25.30;100597.00;;;;2087028;28;20235;-52
2022/07/31 04:37:41;;;;;;;2.30;2.10;;;;;25.30;100606.00;;;;2086135;28;20213;-52
2022/07/31 04:38:42;;;;;;;1.90;1.80;;;;;25.30;100606.00;;;;2087222;28;20225;-53
2022/07/31 04:39:42;;;;;;;1.80;1.70;;;;;25.30;100600.00;;;;2086295;28;20359;-52
2022/07/31 04:40:43;;;;;;;1.83;1.70;;;;;25.30;100604.00;;;;2086449;28;20205;-52
2022/07/31 04:41:43;;;;;;;1.93;1.73;;;;;25.30;100616.00;;;;2087167;28;20209;-52
2022/07/31 04:42:43;;;;;;;1.90;1.80;;;;;25.30;100606.00;;;;2087137;28;20296;-52
2022/07/31 04:43:44;;;;;;;1.50;1.40;;;;;25.30;100597.00;;;;2087115;28;21965;-52
2022/07/31 04:44:44;;;;;;;1.80;1.70;;;;;25.30;100611.00;;;;2079836;28;20779;-52
2022/07/31 04:45:44;;;;;;;1.90;1.80;;;;;25.30;100598.00;;;;2076688;28;24260;-53
2022/07/31 04:46:45;;;;;;;1.87;1.77;;;;;25.30;100603.00;;;;2078759;28;20308;-52
2022/07/31 04:47:45;;;;;;;1.90;1.70;;;;;25.30;100603.00;;;;2080058;28;20217;-52
2022/07/31 04:48:45;;;;;;;1.83;1.60;;;;;25.30;100612.00;;;;2086898;28;20209;-52
2022/07/31 04:49:46;;;;;;;2.00;1.90;;;;;25.30;100600.00;;;;2086453;28;20213;-53
2022/07/31 04:50:46;;;;;;;1.87;1.77;;;;;25.30;100600.00;;;;2078799;28;20323;-52
2022/07/31 04:51:46;;;;;;;2.53;1.70;;;;;25.30;100602.00;;;;2081064;28;20217;-53
2022/07/31 04:52:47;;;;;;;2.30;2.10;;;;;25.30;100612.00;;;;2086965;28;20286;-52
2022/07/31 04:53:48;;;;;;;2.07;1.87;;;;;25.30;100597.00;;;;2086556;28;20628;-52
2022/07/31 04:54:49;;;;;;;2.25;2.05;;;;;25.30;100607.00;;;;2086295;28;20697;-52
2022/07/31 04:57:08;;;;;;;2.10;1.90;;;;;25.30;100604.00;;;;2086704;28;20228;-53
2022/07/31 04:58:09;;;;;;;1.90;1.80;;;;;25.30;100603.00;;;;2085786;28;20213;-52
2022/07/31 04:59:10;;;;;;;1.93;1.83;;;;;25.30;100600.00;;;;2087014;28;20205;-53
2022/07/31 05:00:11;;;;;;;1.85;1.75;;;;;25.30;100592.00;;;;2085352;28;20604;-53
2022/07/31 05:01:12;;;;;;;2.08;1.98;;;;;25.30;100601.00;;;;2078041;28;20287;-52
2022/07/31 05:02:12;;;;;;;1.80;1.70;;;;;25.30;100576.00;;;;2079074;28;20267;-52
2022/07/31 05:03:12;;;;;;;1.67;1.57;;;;;25.30;100600.00;;;;2078104;28;20304;-52
2022/07/31 05:04:13;;;;;;;2.00;1.90;;;;;25.30;100595.00;;;;2077976;28;20209;-53
2022/07/31 05:05:13;;;;;;;2.00;1.80;;;;;25.30;100612.00;;;;2077399;28;20220;-53
2022/07/31 05:06:13;;;;;;;2.03;1.90;;;;;25.30;100608.00;;;;2078241;28;20213;-52